sensor_id;sensor_type;location;lat;lon;timestamp;temperature;humidity
27747;DHT22;15138;51.012;4.692;2024-01-25T00:02:18;9.40;1.00
27747;DHT22;15138;51.012;4.692;2024-01-25T00:04:46;9.40;1.00
27747;DHT22;15138;51.012;4.692;2024-01-25T00:07:14;9.50;1.00
27747;DHT22;15138;51.012;4.692;2024-01-25T00:09:42;9.40;15.40
27747;DHT22;15138;51.012;4.692;2024-01-25T00:12:12;9.40;1.00
27747;DHT22;15138;51.012;4.692;2024-01-25T00:14:40;9.40;1.00
27747;DHT22;15138;51.012;4.692;2024-01-25T00:17:08;9.40;77.00
27747;DHT22;15138;51.012;4.692;2024-01-25T00:19:37;9.30;85.90
27747;DHT22;15138;51.012;4.692;2024-01-25T00:22:05;9.30;69.00
27747;DHT22;15138;51.012;4.692;2024-01-25T00:24:33;9.20;53.70
27747;DHT22;15138;51.012;4.692;2024-01-25T00:27:02;9.20;70.00
27747;DHT22;15138;51.012;4.692;2024-01-25T00:29:34;9.10;16.90
27747;DHT22;15138;51.012;4.692;2024-01-25T00:32:02;9.10;99.90
27747;DHT22;15138;51.012;4.692;2024-01-25T00:34:31;9.10;99.90
27747;DHT22;15138;51.012;4.692;2024-01-25T00:37:00;9.00;99.90
27747;DHT22;15138;51.012;4.692;2024-01-25T00:39:29;9.00;99.90
27747;DHT22;15138;51.012;4.692;2024-01-25T00:42:03;9.00;99.90
27747;DHT22;15138;51.012;4.692;2024-01-25T00:44:34;9.00;99.90
27747;DHT22;15138;51.012;4.692;2024-01-25T00:47:02;8.90;99.90
27747;DHT22;15138;51.012;4.692;2024-01-25T00:49:31;8.90;99.90
27747;DHT22;15138;51.012;4.692;2024-01-25T00:52:02;8.90;1.00
27747;DHT22;15138;51.012;4.692;2024-01-25T00:54:31;8.80;99.90
27747;DHT22;15138;51.012;4.692;2024-01-25T00:57:00;8.80;1.00
27747;DHT22;15138;51.012;4.692;2024-01-25T00:59:29;8.80;1.00
27747;DHT22;15138;51.012;4.692;2024-01-25T01:01:59;8.80;1.00
27747;DHT22;15138;51.012;4.692;2024-01-25T01:04:33;8.80;25.30
27747;DHT22;15138;51.012;4.692;2024-01-25T01:07:14;8.70;99.90
27747;DHT22;15138;51.012;4.692;2024-01-25T01:09:43;8.60;99.90
27747;DHT22;15138;51.012;4.692;2024-01-25T01:12:11;8.60;99.90
27747;DHT22;15138;51.012;4.692;2024-01-25T01:14:40;8.60;99.90
27747;DHT22;15138;51.012;4.692;2024-01-25T01:17:10;8.60;99.90
27747;DHT22;15138;51.012;4.692;2024-01-25T01:19:38;8.60;1.00
27747;DHT22;15138;51.012;4.692;2024-01-25T01:22:06;8.50;99.90
27747;DHT22;15138;51.012;4.692;2024-01-25T01:24:35;8.50;99.90
27747;DHT22;15138;51.012;4.692;2024-01-25T01:27:03;8.50;99.90
27747;DHT22;15138;51.012;4.692;2024-01-25T01:29:31;8.40;1.00
27747;DHT22;15138;51.012;4.692;2024-01-25T01:31:59;8.40;99.90
27747;DHT22;15138;51.012;4.692;2024-01-25T01:34:29;8.40;99.90
27747;DHT22;15138;51.012;4.692;2024-01-25T01:36:58;8.30;99.90
27747;DHT22;15138;51.012;4.692;2024-01-25T01:39:26;8.30;99.90
27747;DHT22;15138;51.012;4.692;2024-01-25T01:41:54;8.30;99.90
27747;DHT22;15138;51.012;4.692;2024-01-25T01:44:22;8.20;99.90
27747;DHT22;15138;51.012;4.692;2024-01-25T01:46:50;8.20;99.90
27747;DHT22;15138;51.012;4.692;2024-01-25T01:49:19;8.20;99.90
27747;DHT22;15138;51.012;4.692;2024-01-25T01:51:49;8.10;99.90
27747;DHT22;15138;51.012;4.692;2024-01-25T01:54:18;8.10;99.90
27747;DHT22;15138;51.012;4.692;2024-01-25T01:56:46;8.10;1.00
27747;DHT22;15138;51.012;4.692;2024-01-25T01:59:15;8.00;1.00
27747;DHT22;15138;51.012;4.692;2024-01-25T02:01:44;8.00;1.00
27747;DHT22;15138;51.012;4.692;2024-01-25T02:04:12;8.00;1.00
27747;DHT22;15138;51.012;4.692;2024-01-25T02:06:42;7.90;99.90
27747;DHT22;15138;51.012;4.692;2024-01-25T02:09:12;7.80;99.90
27747;DHT22;15138;51.012;4.692;2024-01-25T02:11:41;7.80;99.90
27747;DHT22;15138;51.012;4.692;2024-01-25T02:14:09;7.70;99.90
27747;DHT22;15138;51.012;4.692;2024-01-25T02:16:38;7.70;1.00
27747;DHT22;15138;51.012;4.692;2024-01-25T02:19:07;7.70;1.00
27747;DHT22;15138;51.012;4.692;2024-01-25T02:21:35;7.60;1.00
27747;DHT22;15138;51.012;4.692;2024-01-25T02:24:06;7.60;1.00
27747;DHT22;15138;51.012;4.692;2024-01-25T02:26:34;7.50;1.00
27747;DHT22;15138;51.012;4.692;2024-01-25T02:29:03;7.40;1.00
27747;DHT22;15138;51.012;4.692;2024-01-25T02:31:32;7.30;99.90
27747;DHT22;15138;51.012;4.692;2024-01-25T02:34:00;7.30;99.90
27747;DHT22;15138;51.012;4.692;2024-01-25T02:36:29;7.30;83.60
27747;DHT22;15138;51.012;4.692;2024-01-25T02:38:57;7.30;1.00
27747;DHT22;15138;51.012;4.692;2024-01-25T02:41:29;7.30;99.90
27747;DHT22;15138;51.012;4.692;2024-01-25T02:43:57;7.40;99.90
27747;DHT22;15138;51.012;4.692;2024-01-25T02:46:25;7.30;99.90
27747;DHT22;15138;51.012;4.692;2024-01-25T02:48:53;7.20;49.00
27747;DHT22;15138;51.012;4.692;2024-01-25T02:51:22;7.20;99.90
27747;DHT22;15138;51.012;4.692;2024-01-25T02:53:50;7.10;1.00
27747;DHT22;15138;51.012;4.692;2024-01-25T02:56:18;7.10;1.00
27747;DHT22;15138;51.012;4.692;2024-01-25T02:58:48;7.10;1.00
27747;DHT22;15138;51.012;4.692;2024-01-25T03:01:16;7.10;13.70
27747;DHT22;15138;51.012;4.692;2024-01-25T03:03:45;7.00;99.90
27747;DHT22;15138;51.012;4.692;2024-01-25T03:06:13;7.00;14.00
27747;DHT22;15138;51.012;4.692;2024-01-25T03:08:41;6.90;99.90
27747;DHT22;15138;51.012;4.692;2024-01-25T03:11:10;6.80;99.90
27747;DHT22;15138;51.012;4.692;2024-01-25T03:13:38;6.80;1.00
27747;DHT22;15138;51.012;4.692;2024-01-25T03:16:08;6.80;99.90
27747;DHT22;15138;51.012;4.692;2024-01-25T03:18:36;6.70;99.90
27747;DHT22;15138;51.012;4.692;2024-01-25T03:21:04;6.80;1.00
27747;DHT22;15138;51.012;4.692;2024-01-25T03:23:32;6.80;99.90
27747;DHT22;15138;51.012;4.692;2024-01-25T03:26:01;6.60;1.00
27747;DHT22;15138;51.012;4.692;2024-01-25T03:28:30;6.60;1.00
27747;DHT22;15138;51.012;4.692;2024-01-25T03:30:59;6.50;99.90
27747;DHT22;15138;51.012;4.692;2024-01-25T03:33:28;6.40;1.00
27747;DHT22;15138;51.012;4.692;2024-01-25T03:36:01;6.40;1.00
27747;DHT22;15138;51.012;4.692;2024-01-25T03:38:30;6.30;78.10
27747;DHT22;15138;51.012;4.692;2024-01-25T03:40:58;6.40;99.90
27747;DHT22;15138;51.012;4.692;2024-01-25T03:43:26;6.30;1.00
27747;DHT22;15138;51.012;4.692;2024-01-25T03:46:08;6.30;99.90
27747;DHT22;15138;51.012;4.692;2024-01-25T03:48:38;6.10;1.00
27747;DHT22;15138;51.012;4.692;2024-01-25T03:51:06;6.10;99.90
27747;DHT22;15138;51.012;4.692;2024-01-25T03:53:34;6.10;99.90
27747;DHT22;15138;51.012;4.692;2024-01-25T03:56:03;6.10;1.00
27747;DHT22;15138;51.012;4.692;2024-01-25T03:58:31;6.00;99.90
27747;DHT22;15138;51.012;4.692;2024-01-25T04:01:00;5.90;90.50
27747;DHT22;15138;51.012;4.692;2024-01-25T04:03:28;5.90;1.00
27747;DHT22;15138;51.012;4.692;2024-01-25T04:05:58;5.80;99.90
27747;DHT22;15138;51.012;4.692;2024-01-25T04:08:26;5.80;99.90
27747;DHT22;15138;51.012;4.692;2024-01-25T04:10:54;5.80;26.40
27747;DHT22;15138;51.012;4.692;2024-01-25T04:13:23;5.80;1.00
27747;DHT22;15138;51.012;4.692;2024-01-25T04:15:51;5.70;1.00
27747;DHT22;15138;51.012;4.692;2024-01-25T04:18:19;5.70;1.00
27747;DHT22;15138;51.012;4.692;2024-01-25T04:20:48;5.70;1.00
27747;DHT22;15138;51.012;4.692;2024-01-25T04:23:19;5.60;1.00
27747;DHT22;15138;51.012;4.692;2024-01-25T04:25:48;5.60;99.90
27747;DHT22;15138;51.012;4.692;2024-01-25T04:28:17;5.60;99.90
27747;DHT22;15138;51.012;4.692;2024-01-25T04:30:45;5.50;99.90
27747;DHT22;15138;51.012;4.692;2024-01-25T04:33:14;5.50;99.90
27747;DHT22;15138;51.012;4.692;2024-01-25T04:35:43;5.40;99.90
27747;DHT22;15138;51.012;4.692;2024-01-25T04:38:12;5.40;99.90
27747;DHT22;15138;51.012;4.692;2024-01-25T04:40:42;5.30;99.90
27747;DHT22;15138;51.012;4.692;2024-01-25T04:43:10;5.40;56.10
27747;DHT22;15138;51.012;4.692;2024-01-25T04:45:39;5.30;1.00
27747;DHT22;15138;51.012;4.692;2024-01-25T04:48:08;5.30;1.00
27747;DHT22;15138;51.012;4.692;2024-01-25T04:50:36;5.20;1.00
27747;DHT22;15138;51.012;4.692;2024-01-25T04:53:06;5.20;1.00
27747;DHT22;15138;51.012;4.692;2024-01-25T04:55:34;5.10;1.00
27747;DHT22;15138;51.012;4.692;2024-01-25T04:58:04;5.10;1.00
27747;DHT22;15138;51.012;4.692;2024-01-25T05:00:32;5.00;1.00
27747;DHT22;15138;51.012;4.692;2024-01-25T05:03:00;4.90;1.00
27747;DHT22;15138;51.012;4.692;2024-01-25T05:05:29;4.90;58.50
27747;DHT22;15138;51.012;4.692;2024-01-25T05:07:57;4.80;99.90
27747;DHT22;15138;51.012;4.692;2024-01-25T05:10:26;4.90;99.90
27747;DHT22;15138;51.012;4.692;2024-01-25T05:12:54;4.80;99.90
27747;DHT22;15138;51.012;4.692;2024-01-25T05:15:24;4.80;1.00
27747;DHT22;15138;51.012;4.692;2024-01-25T05:17:52;4.80;1.00
27747;DHT22;15138;51.012;4.692;2024-01-25T05:20:20;4.70;1.00
27747;DHT22;15138;51.012;4.692;2024-01-25T05:22:49;4.70;99.90
27747;DHT22;15138;51.012;4.692;2024-01-25T05:25:17;4.80;99.90
27747;DHT22;15138;51.012;4.692;2024-01-25T05:27:45;4.70;99.90
27747;DHT22;15138;51.012;4.692;2024-01-25T05:30:14;4.70;99.90
27747;DHT22;15138;51.012;4.692;2024-01-25T05:32:43;4.60;99.90
27747;DHT22;15138;51.012;4.692;2024-01-25T05:35:12;4.60;99.90
27747;DHT22;15138;51.012;4.692;2024-01-25T05:37:41;4.50;78.80
27747;DHT22;15138;51.012;4.692;2024-01-25T05:40:10;4.50;71.10
27747;DHT22;15138;51.012;4.692;2024-01-25T05:42:38;4.50;78.20
27747;DHT22;15138;51.012;4.692;2024-01-25T05:45:07;4.40;80.60
27747;DHT22;15138;51.012;4.692;2024-01-25T05:47:36;4.50;84.10
27747;DHT22;15138;51.012;4.692;2024-01-25T05:50:06;4.40;85.90
27747;DHT22;15138;51.012;4.692;2024-01-25T05:52:35;4.40;72.90
27747;DHT22;15138;51.012;4.692;2024-01-25T05:55:05;4.40;49.20
27747;DHT22;15138;51.012;4.692;2024-01-25T05:57:35;4.30;60.70
27747;DHT22;15138;51.012;4.692;2024-01-25T06:00:05;4.30;72.20
27747;DHT22;15138;51.012;4.692;2024-01-25T06:02:34;4.30;92.80
27747;DHT22;15138;51.012;4.692;2024-01-25T06:05:02;4.30;99.90
27747;DHT22;15138;51.012;4.692;2024-01-25T06:07:32;4.20;97.50
27747;DHT22;15138;51.012;4.692;2024-01-25T06:10:01;4.20;93.10
27747;DHT22;15138;51.012;4.692;2024-01-25T06:12:30;4.20;61.70
27747;DHT22;15138;51.012;4.692;2024-01-25T06:14:59;4.10;29.10
27747;DHT22;15138;51.012;4.692;2024-01-25T06:17:27;4.00;17.90
27747;DHT22;15138;51.012;4.692;2024-01-25T06:19:55;4.00;36.20
27747;DHT22;15138;51.012;4.692;2024-01-25T06:22:24;4.00;33.40
27747;DHT22;15138;51.012;4.692;2024-01-25T06:24:53;4.00;15.60
27747;DHT22;15138;51.012;4.692;2024-01-25T06:27:22;4.00;1.00
27747;DHT22;15138;51.012;4.692;2024-01-25T06:29:50;3.90;1.00
27747;DHT22;15138;51.012;4.692;2024-01-25T06:32:18;3.90;1.00
27747;DHT22;15138;51.012;4.692;2024-01-25T06:34:52;3.90;1.00
27747;DHT22;15138;51.012;4.692;2024-01-25T06:37:21;3.80;1.00
27747;DHT22;15138;51.012;4.692;2024-01-25T06:39:50;3.90;1.00
27747;DHT22;15138;51.012;4.692;2024-01-25T06:42:19;3.90;1.00
27747;DHT22;15138;51.012;4.692;2024-01-25T06:44:47;3.90;1.00
27747;DHT22;15138;51.012;4.692;2024-01-25T06:47:16;3.90;1.00
27747;DHT22;15138;51.012;4.692;2024-01-25T06:49:47;3.90;99.90
27747;DHT22;15138;51.012;4.692;2024-01-25T06:52:18;3.90;99.90
27747;DHT22;15138;51.012;4.692;2024-01-25T06:54:47;3.90;99.90
27747;DHT22;15138;51.012;4.692;2024-01-25T06:57:16;3.90;99.90
27747;DHT22;15138;51.012;4.692;2024-01-25T06:59:45;3.90;1.00
27747;DHT22;15138;51.012;4.692;2024-01-25T07:02:15;3.80;1.00
27747;DHT22;15138;51.012;4.692;2024-01-25T07:04:44;3.90;1.00
27747;DHT22;15138;51.012;4.692;2024-01-25T07:07:13;3.90;99.90
27747;DHT22;15138;51.012;4.692;2024-01-25T07:09:41;3.90;90.80
27747;DHT22;15138;51.012;4.692;2024-01-25T07:12:09;3.90;99.90
27747;DHT22;15138;51.012;4.692;2024-01-25T07:14:38;3.80;32.30
27747;DHT22;15138;51.012;4.692;2024-01-25T07:17:07;3.80;1.00
27747;DHT22;15138;51.012;4.692;2024-01-25T07:19:35;3.90;1.00
27747;DHT22;15138;51.012;4.692;2024-01-25T07:22:04;3.90;1.00
27747;DHT22;15138;51.012;4.692;2024-01-25T07:24:32;3.90;99.90
27747;DHT22;15138;51.012;4.692;2024-01-25T07:27:00;3.80;1.00
27747;DHT22;15138;51.012;4.692;2024-01-25T07:29:28;3.90;1.00
27747;DHT22;15138;51.012;4.692;2024-01-25T07:31:56;3.90;99.90
27747;DHT22;15138;51.012;4.692;2024-01-25T07:34:26;3.90;99.90
27747;DHT22;15138;51.012;4.692;2024-01-25T07:36:54;3.80;99.90
27747;DHT22;15138;51.012;4.692;2024-01-25T07:39:23;3.80;58.00
27747;DHT22;15138;51.012;4.692;2024-01-25T07:41:51;3.80;1.00
27747;DHT22;15138;51.012;4.692;2024-01-25T07:44:19;3.80;99.90
27747;DHT22;15138;51.012;4.692;2024-01-25T07:46:48;3.90;93.80
27747;DHT22;15138;51.012;4.692;2024-01-25T07:49:16;3.80;1.00
27747;DHT22;15138;51.012;4.692;2024-01-25T07:51:46;3.90;1.00
27747;DHT22;15138;51.012;4.692;2024-01-25T07:54:14;3.80;1.00
27747;DHT22;15138;51.012;4.692;2024-01-25T07:56:43;3.90;1.00
27747;DHT22;15138;51.012;4.692;2024-01-25T07:59:11;3.90;1.00
27747;DHT22;15138;51.012;4.692;2024-01-25T08:01:39;4.00;1.00
27747;DHT22;15138;51.012;4.692;2024-01-25T08:04:07;4.00;1.00
27747;DHT22;15138;51.012;4.692;2024-01-25T08:06:36;4.10;1.00
27747;DHT22;15138;51.012;4.692;2024-01-25T08:09:05;4.10;1.00
27747;DHT22;15138;51.012;4.692;2024-01-25T08:11:34;4.20;1.00
27747;DHT22;15138;51.012;4.692;2024-01-25T08:14:02;4.20;99.90
27747;DHT22;15138;51.012;4.692;2024-01-25T08:16:30;4.30;99.90
27747;DHT22;15138;51.012;4.692;2024-01-25T08:18:59;4.40;1.00
27747;DHT22;15138;51.012;4.692;2024-01-25T08:21:27;4.50;99.90
27747;DHT22;15138;51.012;4.692;2024-01-25T08:23:55;4.40;1.00
27747;DHT22;15138;51.012;4.692;2024-01-25T08:26:25;4.50;99.90
27747;DHT22;15138;51.012;4.692;2024-01-25T08:28:53;4.70;1.00
27747;DHT22;15138;51.012;4.692;2024-01-25T08:31:22;4.80;1.00
27747;DHT22;15138;51.012;4.692;2024-01-25T08:33:50;4.80;1.00
27747;DHT22;15138;51.012;4.692;2024-01-25T08:36:19;5.00;2.50
27747;DHT22;15138;51.012;4.692;2024-01-25T08:38:47;5.20;99.90
27747;DHT22;15138;51.012;4.692;2024-01-25T08:41:15;5.10;1.00
27747;DHT22;15138;51.012;4.692;2024-01-25T08:43:45;5.40;99.90
27747;DHT22;15138;51.012;4.692;2024-01-25T08:46:13;5.60;99.90
27747;DHT22;15138;51.012;4.692;2024-01-25T08:48:42;5.90;1.00
27747;DHT22;15138;51.012;4.692;2024-01-25T08:51:11;6.00;1.00
27747;DHT22;15138;51.012;4.692;2024-01-25T08:53:39;5.90;1.00
27747;DHT22;15138;51.012;4.692;2024-01-25T08:58:36;6.00;1.00
27747;DHT22;15138;51.012;4.692;2024-01-25T09:01:06;6.10;1.00
27747;DHT22;15138;51.012;4.692;2024-01-25T09:03:34;6.20;1.00
27747;DHT22;15138;51.012;4.692;2024-01-25T09:06:03;6.30;1.00
27747;DHT22;15138;51.012;4.692;2024-01-25T09:08:33;6.20;1.00
27747;DHT22;15138;51.012;4.692;2024-01-25T09:11:01;6.20;1.00
27747;DHT22;15138;51.012;4.692;2024-01-25T09:13:30;6.40;1.00
27747;DHT22;15138;51.012;4.692;2024-01-25T09:16:11;6.40;1.00
27747;DHT22;15138;51.012;4.692;2024-01-25T09:18:40;6.40;1.00
27747;DHT22;15138;51.012;4.692;2024-01-25T09:21:09;6.50;1.00
27747;DHT22;15138;51.012;4.692;2024-01-25T09:23:37;6.40;1.00
27747;DHT22;15138;51.012;4.692;2024-01-25T09:26:05;6.40;1.00
27747;DHT22;15138;51.012;4.692;2024-01-25T09:28:33;6.40;1.00
27747;DHT22;15138;51.012;4.692;2024-01-25T09:31:02;6.50;1.00
27747;DHT22;15138;51.012;4.692;2024-01-25T09:33:33;6.50;1.00
27747;DHT22;15138;51.012;4.692;2024-01-25T09:36:02;6.50;1.00
27747;DHT22;15138;51.012;4.692;2024-01-25T09:38:31;6.40;1.00
27747;DHT22;15138;51.012;4.692;2024-01-25T09:40:59;6.50;1.00
27747;DHT22;15138;51.012;4.692;2024-01-25T09:43:30;6.50;1.00
27747;DHT22;15138;51.012;4.692;2024-01-25T09:46:00;6.70;1.00
27747;DHT22;15138;51.012;4.692;2024-01-25T09:48:29;6.70;1.00
27747;DHT22;15138;51.012;4.692;2024-01-25T09:50:59;6.60;1.00
27747;DHT22;15138;51.012;4.692;2024-01-25T09:53:30;6.70;1.00
27747;DHT22;15138;51.012;4.692;2024-01-25T09:56:06;6.80;1.00
27747;DHT22;15138;51.012;4.692;2024-01-25T09:58:38;6.80;1.00
27747;DHT22;15138;51.012;4.692;2024-01-25T10:01:08;6.80;1.00
27747;DHT22;15138;51.012;4.692;2024-01-25T10:03:38;6.90;1.00
27747;DHT22;15138;51.012;4.692;2024-01-25T10:06:09;6.90;1.00
27747;DHT22;15138;51.012;4.692;2024-01-25T10:08:39;7.00;1.00
27747;DHT22;15138;51.012;4.692;2024-01-25T10:11:07;6.90;1.00
27747;DHT22;15138;51.012;4.692;2024-01-25T10:13:40;7.00;1.00
27747;DHT22;15138;51.012;4.692;2024-01-25T10:16:11;7.00;1.00
27747;DHT22;15138;51.012;4.692;2024-01-25T10:18:42;7.00;1.00
27747;DHT22;15138;51.012;4.692;2024-01-25T10:21:13;7.00;1.00
27747;DHT22;15138;51.012;4.692;2024-01-25T10:23:44;7.00;1.00
27747;DHT22;15138;51.012;4.692;2024-01-25T10:26:13;7.00;1.00
27747;DHT22;15138;51.012;4.692;2024-01-25T10:28:41;7.20;1.00
27747;DHT22;15138;51.012;4.692;2024-01-25T10:31:10;7.10;9.00
27747;DHT22;15138;51.012;4.692;2024-01-25T10:36:08;7.40;99.90
27747;DHT22;15138;51.012;4.692;2024-01-25T10:41:11;7.20;53.30
27747;DHT22;15138;51.012;4.692;2024-01-25T10:43:41;7.50;99.90
27747;DHT22;15138;51.012;4.692;2024-01-25T10:46:10;7.30;76.00
27747;DHT22;15138;51.012;4.692;2024-01-25T10:48:39;7.40;90.20
27747;DHT22;15138;51.012;4.692;2024-01-25T10:51:09;7.60;99.50
27747;DHT22;15138;51.012;4.692;2024-01-25T10:53:41;7.40;99.90
27747;DHT22;15138;51.012;4.692;2024-01-25T10:56:09;7.50;98.30
27747;DHT22;15138;51.012;4.692;2024-01-25T10:58:40;7.70;99.90
27747;DHT22;15138;51.012;4.692;2024-01-25T11:01:09;7.80;99.90
27747;DHT22;15138;51.012;4.692;2024-01-25T11:03:45;7.80;99.90
27747;DHT22;15138;51.012;4.692;2024-01-25T11:06:16;7.70;91.80
27747;DHT22;15138;51.012;4.692;2024-01-25T11:08:49;7.70;92.10
27747;DHT22;15138;51.012;4.692;2024-01-25T11:11:18;7.80;93.50
27747;DHT22;15138;51.012;4.692;2024-01-25T11:13:50;7.80;99.90
27747;DHT22;15138;51.012;4.692;2024-01-25T11:16:24;7.90;92.80
27747;DHT22;15138;51.012;4.692;2024-01-25T11:18:56;7.80;85.90
27747;DHT22;15138;51.012;4.692;2024-01-25T11:21:26;7.80;53.00
27747;DHT22;15138;51.012;4.692;2024-01-25T11:24:03;7.90;59.50
27747;DHT22;15138;51.012;4.692;2024-01-25T11:26:32;7.90;30.50
27747;DHT22;15138;51.012;4.692;2024-01-25T11:29:02;7.90;33.90
27747;DHT22;15138;51.012;4.692;2024-01-25T11:31:30;8.00;32.50
27747;DHT22;15138;51.012;4.692;2024-01-25T11:33:59;8.20;27.90
27747;DHT22;15138;51.012;4.692;2024-01-25T11:36:28;8.10;20.60
27747;DHT22;15138;51.012;4.692;2024-01-25T11:38:57;8.30;10.00
27747;DHT22;15138;51.012;4.692;2024-01-25T11:41:26;8.20;9.50
27747;DHT22;15138;51.012;4.692;2024-01-25T11:43:55;8.30;1.00
27747;DHT22;15138;51.012;4.692;2024-01-25T11:46:23;8.40;1.00
27747;DHT22;15138;51.012;4.692;2024-01-25T11:48:53;8.30;1.00
27747;DHT22;15138;51.012;4.692;2024-01-25T11:51:21;8.50;1.00
27747;DHT22;15138;51.012;4.692;2024-01-25T11:53:49;8.50;1.00
27747;DHT22;15138;51.012;4.692;2024-01-25T11:56:21;8.70;1.00
27747;DHT22;15138;51.012;4.692;2024-01-25T11:58:51;8.70;1.00
27747;DHT22;15138;51.012;4.692;2024-01-25T12:01:23;8.70;1.00
27747;DHT22;15138;51.012;4.692;2024-01-25T12:03:52;8.80;1.00
27747;DHT22;15138;51.012;4.692;2024-01-25T12:06:21;8.80;1.00
27747;DHT22;15138;51.012;4.692;2024-01-25T12:08:49;8.80;1.00
27747;DHT22;15138;51.012;4.692;2024-01-25T12:11:19;8.80;1.00
27747;DHT22;15138;51.012;4.692;2024-01-25T12:13:52;8.90;99.90
27747;DHT22;15138;51.012;4.692;2024-01-25T12:16:20;8.90;99.90
27747;DHT22;15138;51.012;4.692;2024-01-25T12:18:49;9.00;99.90
27747;DHT22;15138;51.012;4.692;2024-01-25T12:21:18;8.90;99.90
27747;DHT22;15138;51.012;4.692;2024-01-25T12:23:46;8.90;99.90
27747;DHT22;15138;51.012;4.692;2024-01-25T12:26:15;9.00;99.90
27747;DHT22;15138;51.012;4.692;2024-01-25T12:28:44;9.00;99.90
27747;DHT22;15138;51.012;4.692;2024-01-25T12:31:13;9.10;99.90
27747;DHT22;15138;51.012;4.692;2024-01-25T12:33:42;9.10;99.90
27747;DHT22;15138;51.012;4.692;2024-01-25T12:36:10;9.10;99.90
27747;DHT22;15138;51.012;4.692;2024-01-25T12:38:39;9.20;99.90
27747;DHT22;15138;51.012;4.692;2024-01-25T12:41:08;9.20;99.90
27747;DHT22;15138;51.012;4.692;2024-01-25T12:43:37;9.20;99.90
27747;DHT22;15138;51.012;4.692;2024-01-25T12:46:05;9.20;99.90
27747;DHT22;15138;51.012;4.692;2024-01-25T12:48:53;9.30;99.90
27747;DHT22;15138;51.012;4.692;2024-01-25T12:51:24;9.20;99.90
27747;DHT22;15138;51.012;4.692;2024-01-25T12:53:53;9.30;99.90
27747;DHT22;15138;51.012;4.692;2024-01-25T12:56:21;9.30;99.90
27747;DHT22;15138;51.012;4.692;2024-01-25T12:58:50;9.30;99.90
27747;DHT22;15138;51.012;4.692;2024-01-25T13:01:18;9.20;99.90
27747;DHT22;15138;51.012;4.692;2024-01-25T13:03:47;9.30;1.00
27747;DHT22;15138;51.012;4.692;2024-01-25T13:06:17;9.30;1.00
27747;DHT22;15138;51.012;4.692;2024-01-25T13:08:45;9.30;1.00
27747;DHT22;15138;51.012;4.692;2024-01-25T13:11:14;9.20;1.00
27747;DHT22;15138;51.012;4.692;2024-01-25T13:13:42;9.30;1.00
27747;DHT22;15138;51.012;4.692;2024-01-25T13:16:12;9.30;1.00
27747;DHT22;15138;51.012;4.692;2024-01-25T13:18:40;9.40;1.00
27747;DHT22;15138;51.012;4.692;2024-01-25T13:21:08;9.30;1.00
27747;DHT22;15138;51.012;4.692;2024-01-25T13:23:38;9.30;1.00
27747;DHT22;15138;51.012;4.692;2024-01-25T13:26:06;9.40;1.00
27747;DHT22;15138;51.012;4.692;2024-01-25T13:28:34;9.30;1.00
27747;DHT22;15138;51.012;4.692;2024-01-25T13:31:03;9.40;11.40
27747;DHT22;15138;51.012;4.692;2024-01-25T13:33:31;9.30;25.20
27747;DHT22;15138;51.012;4.692;2024-01-25T13:35:59;9.40;38.00
27747;DHT22;15138;51.012;4.692;2024-01-25T13:38:27;9.30;51.80
27747;DHT22;15138;51.012;4.692;2024-01-25T13:40:57;9.40;55.70
27747;DHT22;15138;51.012;4.692;2024-01-25T13:43:25;9.40;64.70
27747;DHT22;15138;51.012;4.692;2024-01-25T13:45:54;9.40;61.30
27747;DHT22;15138;51.012;4.692;2024-01-25T13:48:23;9.50;80.70
27747;DHT22;15138;51.012;4.692;2024-01-25T13:50:51;9.50;92.60
27747;DHT22;15138;51.012;4.692;2024-01-25T13:53:20;9.50;97.60
27747;DHT22;15138;51.012;4.692;2024-01-25T13:55:48;9.50;99.90
27747;DHT22;15138;51.012;4.692;2024-01-25T13:58:17;9.50;99.90
27747;DHT22;15138;51.012;4.692;2024-01-25T14:00:45;9.70;99.90
27747;DHT22;15138;51.012;4.692;2024-01-25T14:03:15;9.50;99.90
27747;DHT22;15138;51.012;4.692;2024-01-25T14:05:43;9.60;99.90
27747;DHT22;15138;51.012;4.692;2024-01-25T14:08:12;9.70;99.90
27747;DHT22;15138;51.012;4.692;2024-01-25T14:10:40;9.70;99.90
27747;DHT22;15138;51.012;4.692;2024-01-25T14:13:09;9.60;99.90
27747;DHT22;15138;51.012;4.692;2024-01-25T14:15:39;9.60;99.90
27747;DHT22;15138;51.012;4.692;2024-01-25T14:18:07;9.80;99.90
27747;DHT22;15138;51.012;4.692;2024-01-25T14:20:36;9.80;99.90
27747;DHT22;15138;51.012;4.692;2024-01-25T14:23:05;9.80;99.90
27747;DHT22;15138;51.012;4.692;2024-01-25T14:25:33;9.70;99.90
27747;DHT22;15138;51.012;4.692;2024-01-25T14:28:01;9.80;99.90
27747;DHT22;15138;51.012;4.692;2024-01-25T14:30:30;9.70;99.90
27747;DHT22;15138;51.012;4.692;2024-01-25T14:33:00;9.90;99.90
27747;DHT22;15138;51.012;4.692;2024-01-25T14:35:30;9.80;99.90
27747;DHT22;15138;51.012;4.692;2024-01-25T14:37:58;9.90;99.90
27747;DHT22;15138;51.012;4.692;2024-01-25T14:40:27;9.80;99.90
27747;DHT22;15138;51.012;4.692;2024-01-25T14:43:15;9.80;99.90
27747;DHT22;15138;51.012;4.692;2024-01-25T14:45:43;9.90;99.90
27747;DHT22;15138;51.012;4.692;2024-01-25T14:48:13;9.80;99.90
27747;DHT22;15138;51.012;4.692;2024-01-25T14:50:41;9.90;99.90
27747;DHT22;15138;51.012;4.692;2024-01-25T14:53:10;9.80;99.90
27747;DHT22;15138;51.012;4.692;2024-01-25T14:55:38;9.90;99.90
27747;DHT22;15138;51.012;4.692;2024-01-25T14:58:06;9.90;99.90
27747;DHT22;15138;51.012;4.692;2024-01-25T15:00:36;9.70;99.90
27747;DHT22;15138;51.012;4.692;2024-01-25T15:03:05;9.90;99.90
27747;DHT22;15138;51.012;4.692;2024-01-25T15:05:35;9.90;99.90
27747;DHT22;15138;51.012;4.692;2024-01-25T15:08:04;9.90;99.90
27747;DHT22;15138;51.012;4.692;2024-01-25T15:10:32;9.80;99.90
27747;DHT22;15138;51.012;4.692;2024-01-25T15:13:00;9.80;99.90
27747;DHT22;15138;51.012;4.692;2024-01-25T15:15:28;9.80;99.90
27747;DHT22;15138;51.012;4.692;2024-01-25T15:17:58;9.90;99.90
27747;DHT22;15138;51.012;4.692;2024-01-25T15:20:26;9.90;99.90
27747;DHT22;15138;51.012;4.692;2024-01-25T15:22:56;9.90;99.90
27747;DHT22;15138;51.012;4.692;2024-01-25T15:25:27;10.00;99.90
27747;DHT22;15138;51.012;4.692;2024-01-25T15:27:55;9.90;99.90
27747;DHT22;15138;51.012;4.692;2024-01-25T15:30:23;9.80;99.90
27747;DHT22;15138;51.012;4.692;2024-01-25T15:32:52;10.10;99.90
27747;DHT22;15138;51.012;4.692;2024-01-25T15:35:20;10.10;99.90
27747;DHT22;15138;51.012;4.692;2024-01-25T15:37:49;10.10;99.90
27747;DHT22;15138;51.012;4.692;2024-01-25T15:40:19;9.90;99.90
27747;DHT22;15138;51.012;4.692;2024-01-25T15:42:47;10.00;99.90
27747;DHT22;15138;51.012;4.692;2024-01-25T15:45:19;10.20;99.90
27747;DHT22;15138;51.012;4.692;2024-01-25T15:47:47;10.10;99.90
27747;DHT22;15138;51.012;4.692;2024-01-25T15:50:16;10.20;99.90
27747;DHT22;15138;51.012;4.692;2024-01-25T15:52:46;10.30;99.90
27747;DHT22;15138;51.012;4.692;2024-01-25T15:57:44;10.20;99.90
27747;DHT22;15138;51.012;4.692;2024-01-25T16:05:12;10.50;99.90
27747;DHT22;15138;51.012;4.692;2024-01-25T16:07:41;10.60;99.90
27747;DHT22;15138;51.012;4.692;2024-01-25T16:10:16;10.40;99.90
27747;DHT22;15138;51.012;4.692;2024-01-25T16:12:46;10.30;99.90
27747;DHT22;15138;51.012;4.692;2024-01-25T16:15:16;10.30;99.90
27747;DHT22;15138;51.012;4.692;2024-01-25T16:17:44;10.30;99.90
27747;DHT22;15138;51.012;4.692;2024-01-25T16:22:44;10.20;99.90